Time,TemperatureF,DewpointF,PressureIn,WindDirection,WindDirectionDegrees,WindSpeedMPH,WindSpeedGustMPH,Humidity,HourlyPrecipIn,Conditions,Clouds,dailyrainin,SoftwareType,DateUTC
2013-03-07 01:02:00,41.0,41.0,-100.00,ESE,115,1.0,5.0,100,-99.99,,,-99.99,,2013-03-07 09:02:00,
2013-03-07 01:12:00,41.0,41.0,-100.00,ESE,115,1.0,5.0,100,-99.99,,,-99.99,,2013-03-07 09:12:00,
2013-03-07 03:04:00,41.0,-99.9,-100.00,SE,125,1.0,3.0,-999,-99.99,,,-99.99,,2013-03-07 11:04:00,
2013-03-07 03:12:00,41.0,-99.9,-100.00,SE,125,1.0,3.0,-999,-99.99,,,-99.99,,2013-03-07 11:12:00,
2013-03-07 05:03:00,40.0,-99.9,-100.00,ENE,70,3.0,6.0,-999,-99.99,,,-99.99,,2013-03-07 13:03:00,
2013-03-07 05:13:00,40.0,-99.9,-100.00,ENE,70,3.0,6.0,-999,-99.99,,,-99.99,,2013-03-07 13:13:00,
2013-03-07 07:03:00,40.0,-99.9,-100.00,East,95,3.0,6.0,-999,-99.99,,,-99.99,,2013-03-07 15:03:00,
2013-03-07 07:13:00,40.0,-99.9,-100.00,East,95,3.0,6.0,-999,-99.99,,,-99.99,,2013-03-07 15:13:00,
2013-03-07 11:02:00,41.0,41.0,-100.00,East,95,3.0,9.0,100,-99.99,,,-99.99,,2013-03-07 19:02:00,
2013-03-07 11:12:00,41.0,41.0,-100.00,East,95,3.0,9.0,100,-99.99,,,-99.99,,2013-03-07 19:12:00,
2013-03-07 14:20:00,46.0,42.0,-100.00,West,265,1.0,6.0,85,-99.99,,,-99.99,,2013-03-07 22:20:00,
2013-03-07 15:02:00,46.0,42.0,-100.00,West,265,1.0,6.0,85,-99.99,,,-99.99,,2013-03-07 23:02:00,
2013-03-07 15:12:00,46.0,42.0,-100.00,West,265,1.0,6.0,85,-99.99,,,-99.99,,2013-03-07 23:12:00,
2013-03-07 19:00:00,42.0,41.0,-100.00,WSW,240,0.0,1.0,96,-99.99,,,-99.99,,2013-03-08 03:00:00,
2013-03-07 19:02:00,43.0,41.0,-100.00,WNW,285,1.0,1.0,92,-99.99,,,-99.99,,2013-03-08 03:02:00,
2013-03-07 19:11:00,43.0,41.0,-100.00,WNW,285,1.0,1.0,92,-99.99,,,-99.99,,2013-03-08 03:11:00,
2013-03-07 20:20:00,41.0,40.0,-100.00,SSE,165,1.0,2.0,96,-99.99,,,-99.99,,2013-03-08 04:20:00,
2013-03-07 21:02:00,41.0,40.0,-100.00,SSE,165,1.0,2.0,96,-99.99,,,-99.99,,2013-03-08 05:02:00,
2013-03-07 21:12:00,41.0,40.0,-100.00,SSE,165,1.0,2.0,96,-99.99,,,-99.99,,2013-03-08 05:12:00,
2013-03-07 23:01:00,40.0,39.0,-100.00,SE,130,2.0,3.0,96,-99.99,,,-99.99,,2013-03-08 07:01:00,
2013-03-07 23:11:00,40.0,39.0,-100.00,SE,130,2.0,3.0,96,-99.99,,,-99.99,,2013-03-08 07:11:00,